Thunder radar more information blitzortung!


Löydät sääaseman tiedot myös:

European Weather Network

Finland Weather Exchange

Weather Underground

AWEKAS



Weather Underground säähistoriasivu

Päivittäin yhteenveto Tammikuu 24, 2017 Yksiköt:  Englantilaiset    Metriset   Molemmat
« Edellinen Päivä
Seuraava Päivä »
Päivittäin Viikoittain Kuukausittain Vuosittain Mukautettu
  Korkea: Matala: Keskiarvo:
Lämpötila: TemperatureC °F -9.0 °F -4.6 °F
Kastepiste: DewpointC °F -10.1 °F -5.9 °F
Kosteus: Humidity % 87 % 90 %
Tuulen nopeus: WindSpeedKMH mph 0.0 mph 0 mph
Tuulenpuuska: WindSpeedGustKMH mph - -
Tuuli:- - North
Ilmanpaine: PressurehPa in 1008.0 in -
Sade: 0.0 in    
Historical Graphs
 
 
Taulukkotiedot Tammikuu 24, 2017
Aika Lämpötila Kastepiste Ilmanpaine Tuuli Tuulen nopeus Tuulenpuuska Kosteus Sademäärä (tunneittain)
TemperatureC °F DewpointC °F PressurehPa in Calm     Humidity % HourlyPrecipMM in
00:00 -1.6 °F -2.7 °F 1008.0 in Calm     92 % 0.0 in
00:15 -1.6 °F -2.9 °F 1008.4 in Calm     91 % 0.0 in
00:30 -1.8 °F -3.1 °F 1008.7 in Calm     91 % 0.0 in
00:45 -1.8 °F -3.0 °F 1009.0 in Calm     92 % 0.0 in
01:00 -1.8 °F -2.9 °F 1009.0 in Calm     92 % 0.0 in
01:15 -1.8 °F -2.9 °F 1009.4 in Calm     92 % 0.0 in
01:30 -1.8 °F -2.9 °F 1009.7 in Calm     92 % 0.0 in
01:45 -1.7 °F -2.9 °F 1010.0 in Calm     92 % 0.0 in
02:00 -1.8 °F -2.9 °F 1010.0 in Calm     92 % 0.0 in
02:15 -1.8 °F -3.1 °F 1010.0 in Calm     91 % 0.0 in
02:30 -1.8 °F -3.1 °F 1010.0 in Calm     91 % 0.0 in
02:45 -1.8 °F -3.1 °F 1010.4 in Calm     91 % 0.0 in
03:00 -1.9 °F -3.3 °F 1010.7 in Calm     90 % 0.0 in
03:15 -2.1 °F -3.5 °F 1011.1 in Calm     90 % 0.0 in
03:30 -2.1 °F -3.5 °F 1011.4 in Calm     90 % 0.0 in
03:45 -2.2 °F -3.8 °F 1011.7 in Calm     89 % 0.0 in
04:00 -2.3 °F -3.8 °F 1012.1 in Calm     89 % 0.0 in
04:15 -2.3 °F -3.7 °F 1012.4 in Calm     90 % 0.0 in
04:30 -2.3 °F -3.7 °F 1012.8 in Calm     90 % 0.0 in
04:45 -2.3 °F -3.5 °F 1013.1 in Calm     91 % 0.0 in
05:00 -2.3 °F -3.8 °F 1013.1 in Calm     90 % 0.0 in
05:15 -2.4 °F -3.8 °F 1013.4 in Calm     90 % 0.0 in
05:30 -2.4 °F -3.7 °F 1013.4 in Calm     91 % 0.0 in
05:45 -2.4 °F -3.9 °F 1013.4 in Calm     90 % 0.0 in
06:00 -2.4 °F -3.9 °F 1013.8 in Calm     90 % 0.0 in
06:15 -2.4 °F -4.0 °F 1014.1 in Calm     89 % 0.0 in
06:30 -2.4 °F -4.0 °F 1014.1 in Calm     89 % 0.0 in
06:45 -2.4 °F -4.0 °F 1014.4 in Calm     89 % 0.0 in
07:00 -2.4 °F -4.1 °F 1014.8 in Calm     88 % 0.0 in
07:15 -2.4 °F -4.3 °F 1015.1 in Calm     87 % 0.0 in
07:30 -2.3 °F -4.2 °F 1015.5 in Calm     87 % 0.0 in
07:45 -2.3 °F -4.0 °F 1015.8 in Calm     88 % 0.0 in
08:00 -2.4 °F -4.2 °F 1016.1 in Calm     88 % 0.0 in
08:15 -2.6 °F -4.3 °F 1016.5 in Calm     88 % 0.0 in
08:30 -2.9 °F -4.4 °F 1016.8 in Calm     89 % 0.0 in
08:45 -3.3 °F -4.8 °F 1017.2 in Calm     89 % 0.0 in
09:00 -3.6 °F -5.1 °F 1017.5 in Calm     89 % 0.0 in
09:15 -3.9 °F -5.3 °F 1017.5 in Calm     90 % 0.0 in
09:30 -4.1 °F -5.5 °F 1017.8 in Calm     90 % 0.0 in
09:45 -4.3 °F -5.7 °F 1017.8 in Calm     90 % 0.0 in
10:00 -4.6 °F -5.8 °F 1018.5 in Calm     91 % 0.0 in
10:15 -4.7 °F -5.8 °F 1018.8 in Calm     92 % 0.0 in
10:30 -4.7 °F -5.8 °F 1018.8 in Calm     92 % 0.0 in
10:45 -4.8 °F -5.9 °F 1019.2 in Calm     92 % 0.0 in
11:00 -4.8 °F -5.9 °F 1019.2 in Calm     92 % 0.0 in
11:15 -4.7 °F -5.8 °F 1019.5 in Calm     92 % 0.0 in
11:30 -4.7 °F -5.9 °F 1019.5 in Calm     91 % 0.0 in
11:45 -4.6 °F -5.9 °F 1019.9 in Calm     91 % 0.0 in
12:00 -4.6 °F -6.0 °F 1019.9 in Calm     90 % 0.0 in
12:15 -4.6 °F -6.1 °F 1020.2 in Calm     89 % 0.0 in
12:30 -4.6 °F -6.1 °F 1020.2 in Calm     89 % 0.0 in
12:45 -4.5 °F -6.0 °F 1020.5 in Calm     89 % 0.0 in
13:00 -4.4 °F -6.1 °F 1020.5 in Calm     88 % 0.0 in
13:15 -4.4 °F -6.1 °F 1020.9 in Calm     88 % 0.0 in
13:30 -4.4 °F -6.1 °F 1021.2 in Calm     88 % 0.0 in
13:45 -4.4 °F -6.1 °F 1021.2 in Calm     88 % 0.0 in
14:00 -4.4 °F -6.1 °F 1021.2 in Calm     88 % 0.0 in
14:15 -4.5 °F -6.2 °F 1021.6 in Calm     88 % 0.0 in
14:30 -4.5 °F -6.2 °F 1021.6 in Calm     88 % 0.0 in
14:45 -4.6 °F -6.2 °F 1021.6 in Calm     88 % 0.0 in
15:00 -4.6 °F -6.2 °F 1021.6 in Calm     88 % 0.0 in
15:15 -4.6 °F -6.3 °F 1021.9 in Calm     88 % 0.0 in
15:30 -4.8 °F -6.5 °F 1021.9 in Calm     88 % 0.0 in
15:45 -5.0 °F -6.7 °F 1021.9 in Calm     88 % 0.0 in
16:00 -5.3 °F -6.8 °F 1022.2 in Calm     89 % 0.0 in
16:15 -5.7 °F -7.2 °F 1022.2 in Calm     89 % 0.0 in
16:30 -6.1 °F -7.5 °F 1022.2 in Calm     90 % 0.0 in
16:45 -6.5 °F -7.9 °F 1022.6 in Calm     90 % 0.0 in
17:00 -6.9 °F -8.2 °F 1022.6 in Calm     91 % 0.0 in
17:15 -7.2 °F -8.4 °F 1022.9 in Calm     91 % 0.0 in
17:30 -7.5 °F -8.6 °F 1022.9 in Calm     92 % 0.0 in
17:45 -7.8 °F -8.9 °F 1022.9 in Calm     92 % 0.0 in
18:00 -8.0 °F -9.1 °F 1022.9 in Calm     92 % 0.0 in
18:15 -8.1 °F -9.2 °F 1022.9 in Calm     92 % 0.0 in
18:30 -8.3 °F -9.4 °F 1022.9 in Calm     92 % 0.0 in
18:45 -8.6 °F -9.6 °F 1023.2 in Calm     92 % 0.0 in
19:00 -8.8 °F -9.9 °F 1023.2 in Calm     92 % 0.0 in
19:15 -9.0 °F -10.1 °F 1023.2 in Calm     92 % 0.0 in
19:30 -9.0 °F -9.9 °F 1023.2 in Calm     93 % 0.0 in
19:45 -8.9 °F -9.8 °F 1023.6 in Calm     93 % 0.0 in
20:00 -8.7 °F -9.6 °F 1023.6 in Calm     93 % 0.0 in
20:15 -8.4 °F -9.4 °F 1023.6 in Calm     93 % 0.0 in
20:30 -8.2 °F -9.2 °F 1023.6 in Calm     93 % 0.0 in
20:45 -7.9 °F -8.9 °F 1023.9 in Calm     93 % 0.0 in
21:00 -7.6 °F -8.4 °F 1023.9 in Calm     94 % 0.0 in
21:15 -7.3 °F -8.1 °F 1023.6 in Calm     94 % 0.0 in
21:30 -7.3 °F -8.2 °F 1023.9 in Calm     93 % 0.0 in
21:45 -7.3 °F -8.2 °F 1023.9 in Calm     93 % 0.0 in
22:00 -7.2 °F -8.2 °F 1024.3 in Calm     93 % 0.0 in
22:15 -7.2 °F -8.2 °F 1024.3 in Calm     93 % 0.0 in
22:30 -7.2 °F -8.1 °F 1023.9 in Calm     93 % 0.0 in
22:45 -7.1 °F -8.1 °F 1023.9 in Calm     93 % 0.0 in
23:00 -7.1 °F -8.1 °F 1024.3 in Calm     93 % 0.0 in
23:15 -7.1 °F -8.1 °F 1024.3 in Calm     93 % 0.0 in
23:30 -7.1 °F -8.0 °F 1024.6 in Calm     93 % 0.0 in
23:45 -6.9 °F -7.9 °F 1024.3 in Calm     93 % 0.0 in
Esan sääasema
Terveisin Weather Underground - 2.75 mb

Alkuperäinen skripti  Jim McMurry - jmcmurry@mwt.net Sovitettu myös templatelle  Wim van der Kuil - Leuven-Template.eu

Laitteet joita käytämme:

Sääasema
Davis VP2

Sääasemaohjelma
Cumulus

Sääaseman tietokone
Asus EeePC

Palveluntarjoaja
Suncomet

Davis VP2

Cumulus

Asus EeePC

Suncomet